createdAt,value
2023-04-23T00:01:20.759Z,2.22
2023-04-23T00:03:50.409Z,2.67
2023-04-23T00:06:19.039Z,2.95
2023-04-23T00:08:46.867Z,2.85
2023-04-23T00:11:16.967Z,3.80
2023-04-23T00:13:44.606Z,2.95
2023-04-23T00:16:12.290Z,2.53
2023-04-23T00:18:39.658Z,3.00
2023-04-23T00:21:08.805Z,4.32
2023-04-23T00:23:36.338Z,2.85
2023-04-23T00:26:03.666Z,3.90
2023-04-23T00:28:31.069Z,2.70
2023-04-23T00:30:58.401Z,5.38
2023-04-23T00:33:26.111Z,3.72
2023-04-23T00:35:53.421Z,3.97
2023-04-23T00:38:21.562Z,4.50
2023-04-23T00:40:49.172Z,4.68
2023-04-23T00:43:16.511Z,3.67
2023-04-23T00:45:44.028Z,2.40
2023-04-23T00:48:12.136Z,2.92
2023-04-23T00:50:39.485Z,3.45
2023-04-23T00:53:06.885Z,4.43
2023-04-23T00:55:34.862Z,2.38
2023-04-23T00:58:02.428Z,2.90
2023-04-23T01:00:30.394Z,3.03
2023-04-23T01:02:58.528Z,3.45
2023-04-23T01:05:26.458Z,2.60
2023-04-23T01:07:54.052Z,2.60
2023-04-23T01:10:21.655Z,3.05
2023-04-23T01:12:50.060Z,3.13
2023-04-23T01:15:17.688Z,4.68
2023-04-23T01:17:45.344Z,2.70
2023-04-23T01:20:12.940Z,2.70
2023-04-23T01:22:40.419Z,3.13
2023-04-23T01:25:08.416Z,3.03
2023-04-23T01:27:36.386Z,4.38
2023-04-23T01:30:06.207Z,2.92
2023-04-23T01:32:33.851Z,3.70
2023-04-23T01:35:01.315Z,3.90
2023-04-23T01:37:29.957Z,3.92
2023-04-23T01:39:57.400Z,4.13
2023-04-23T01:42:24.793Z,3.10
2023-04-23T01:44:52.556Z,4.18
2023-04-23T01:47:20.584Z,5.03
2023-04-23T01:49:48.044Z,3.45
2023-04-23T01:52:15.460Z,3.38
2023-04-23T01:54:43.019Z,3.53
2023-04-23T01:57:10.842Z,3.92
2023-04-23T01:59:38.954Z,4.05
2023-04-23T02:02:10.833Z,4.43
2023-04-23T02:04:40.093Z,3.88
2023-04-23T02:07:07.686Z,4.53
2023-04-23T02:09:35.039Z,3.88
2023-04-23T02:12:02.449Z,3.55
2023-04-23T02:14:30.260Z,3.38
2023-04-23T02:16:57.997Z,3.42
2023-04-23T02:19:28.198Z,3.50
2023-04-23T02:21:55.571Z,4.38
2023-04-23T02:24:22.931Z,3.22
2023-04-23T02:26:50.359Z,2.90
2023-04-23T02:29:17.723Z,5.30
2023-04-23T02:31:45.114Z,3.83
2023-04-23T02:34:12.484Z,4.22
2023-04-23T02:36:40.069Z,4.05
2023-04-23T02:39:07.458Z,3.95
2023-04-23T02:41:34.851Z,4.18
2023-04-23T02:44:02.166Z,4.15
2023-04-23T02:46:29.557Z,4.70
2023-04-23T02:48:56.933Z,4.00
2023-04-23T02:51:24.441Z,5.20
2023-04-23T02:53:51.806Z,4.40
2023-04-23T02:56:20.048Z,5.15
2023-04-23T02:58:47.404Z,5.47
2023-04-23T03:01:14.965Z,5.15
2023-04-23T03:03:42.714Z,5.80
2023-04-23T03:06:10.216Z,4.43
2023-04-23T03:08:37.542Z,5.15
2023-04-23T03:11:04.856Z,4.90
2023-04-23T03:13:32.281Z,4.90
2023-04-23T03:16:00.177Z,6.18
2023-04-23T03:18:27.525Z,5.40
2023-04-23T03:20:54.837Z,5.65
2023-04-23T03:23:22.228Z,6.55
2023-04-23T03:25:49.573Z,4.80
2023-04-23T03:28:17.022Z,5.20
2023-04-23T03:30:44.422Z,7.30
2023-04-23T03:33:12.077Z,5.95
2023-04-23T03:35:39.384Z,6.53
2023-04-23T03:38:06.796Z,6.18
2023-04-23T03:40:34.123Z,5.40
2023-04-23T03:43:04.471Z,6.03
2023-04-23T03:45:31.819Z,6.18
2023-04-23T03:47:59.158Z,5.88
2023-04-23T03:50:26.551Z,7.85
2023-04-23T03:52:53.908Z,6.22
2023-04-23T03:55:21.339Z,6.55
2023-04-23T03:57:48.660Z,5.90
2023-04-23T04:00:16.072Z,6.35
2023-04-23T04:02:43.526Z,5.93
2023-04-23T04:05:14.176Z,5.80
2023-04-23T04:07:41.633Z,6.60
2023-04-23T04:10:09.394Z,6.50
2023-04-23T04:12:36.963Z,6.65
2023-04-23T04:15:04.725Z,6.43
2023-04-23T04:17:32.073Z,6.60
2023-04-23T04:19:59.528Z,7.35
2023-04-23T04:22:26.842Z,7.97
2023-04-23T04:24:54.373Z,8.23
2023-04-23T04:27:22.149Z,8.52
2023-04-23T04:29:49.720Z,8.57
2023-04-23T04:32:17.123Z,8.13
2023-04-23T04:34:44.705Z,9.18
2023-04-23T04:37:13.110Z,10.25
2023-04-23T04:39:40.561Z,10.20
2023-04-23T04:42:08.158Z,12.23
2023-04-23T04:44:37.862Z,12.95
2023-04-23T04:47:05.789Z,12.52
2023-04-23T04:49:33.139Z,14.15
2023-04-23T04:52:00.877Z,13.27
2023-04-23T04:54:28.314Z,16.05
2023-04-23T04:56:55.712Z,14.50
2023-04-23T04:59:23.075Z,15.00
2023-04-23T05:01:50.630Z,15.40
2023-04-23T05:04:18.220Z,16.17
2023-04-23T05:06:45.890Z,16.05
2023-04-23T05:09:13.245Z,15.60
2023-04-23T05:11:41.529Z,16.25
2023-04-23T05:14:09.370Z,16.42
2023-04-23T05:16:36.843Z,17.98
2023-04-23T05:19:04.208Z,16.42
2023-04-23T05:21:31.852Z,19.63
2023-04-23T05:23:59.169Z,18.00
2023-04-23T05:26:26.526Z,16.92
2023-04-23T05:28:53.886Z,15.88
2023-04-23T05:31:21.555Z,17.35
2023-04-23T05:33:50.771Z,17.52
2023-04-23T05:36:18.943Z,17.33
2023-04-23T05:38:46.315Z,18.88
2023-04-23T05:41:13.715Z,16.98
2023-04-23T05:43:41.076Z,15.85
2023-04-23T05:46:08.509Z,17.70
2023-04-23T05:48:35.854Z,18.30
2023-04-23T05:51:03.176Z,18.95
2023-04-23T05:53:30.634Z,16.75
2023-04-23T05:55:58.112Z,15.52
2023-04-23T05:58:26.075Z,16.73
2023-04-23T06:00:53.993Z,15.07
2023-04-23T06:03:21.679Z,17.70
2023-04-23T06:05:49.307Z,14.98
2023-04-23T06:08:16.774Z,16.23
2023-04-23T06:10:44.363Z,19.60
2023-04-23T06:13:11.798Z,14.93
2023-04-23T06:15:39.389Z,15.95
2023-04-23T06:18:06.905Z,16.95
2023-04-23T06:20:34.339Z,16.67
2023-04-23T06:23:02.945Z,17.58
2023-04-23T06:25:30.380Z,15.60
2023-04-23T06:27:58.380Z,17.58
2023-04-23T06:30:25.749Z,16.70
2023-04-23T06:32:53.292Z,15.55
2023-04-23T06:35:20.840Z,17.13
2023-04-23T06:37:48.215Z,17.30
2023-04-23T06:40:15.970Z,16.63
2023-04-23T06:42:43.500Z,16.60
2023-04-23T06:45:11.171Z,16.05
2023-04-23T06:47:38.592Z,18.38
2023-04-23T06:50:06.376Z,17.58
2023-04-23T06:52:33.739Z,15.60
2023-04-23T06:55:01.069Z,15.60
2023-04-23T06:57:29.087Z,17.23
2023-04-23T06:59:56.425Z,14.65
2023-04-23T07:02:23.841Z,16.45
2023-04-23T07:04:51.198Z,19.23
2023-04-23T07:07:18.603Z,16.65
2023-04-23T07:09:45.935Z,19.38
2023-04-23T07:12:13.408Z,18.30
2023-04-23T07:14:40.987Z,21.38
2023-04-23T07:17:08.520Z,18.55
2023-04-23T07:19:35.861Z,18.98
2023-04-23T07:22:03.227Z,25.30
2023-04-23T07:24:30.559Z,22.27
2023-04-23T07:26:58.010Z,20.77
2023-04-23T07:29:25.343Z,22.58
2023-04-23T07:31:52.801Z,23.10
2023-04-23T07:34:20.163Z,21.52
2023-04-23T07:36:47.568Z,20.10
2023-04-23T07:39:15.051Z,22.98
2023-04-23T07:41:42.466Z,22.08
2023-04-23T07:44:09.833Z,17.15
2023-04-23T07:46:37.423Z,17.58
2023-04-23T07:49:04.756Z,17.65
2023-04-23T07:51:32.187Z,16.40
2023-04-23T07:53:59.628Z,14.38
2023-04-23T07:56:26.973Z,13.25
2023-04-23T07:58:56.661Z,12.82
2023-04-23T08:01:24.068Z,13.93
2023-04-23T08:03:51.720Z,12.77
2023-04-23T08:06:19.283Z,14.50
2023-04-23T08:08:46.705Z,15.40
2023-04-23T08:11:14.029Z,13.70
2023-04-23T08:13:41.494Z,12.88
2023-04-23T08:16:08.986Z,14.85
2023-04-23T08:18:38.606Z,13.20
2023-04-23T08:21:06.467Z,11.40
2023-04-23T08:23:33.829Z,12.02
2023-04-23T08:26:02.470Z,9.30
2023-04-23T08:28:30.666Z,8.88
2023-04-23T08:30:58.023Z,8.85
2023-04-23T08:33:25.770Z,7.63
2023-04-23T08:35:53.267Z,7.97
2023-04-23T08:38:20.625Z,7.38
2023-04-23T08:40:50.168Z,6.88
2023-04-23T08:43:19.879Z,6.30
2023-04-23T08:45:48.014Z,5.93
2023-04-23T08:48:15.666Z,5.78
2023-04-23T08:50:46.867Z,6.13
2023-04-23T08:53:19.083Z,8.70
2023-04-23T08:55:46.874Z,5.43
2023-04-23T08:58:14.727Z,4.25
2023-04-23T09:00:42.126Z,3.35
2023-04-23T09:03:09.850Z,4.78
2023-04-23T09:05:37.513Z,3.47
2023-04-23T09:08:05.143Z,3.72
2023-04-23T09:10:33.076Z,3.45
2023-04-23T09:13:00.833Z,4.13
2023-04-23T09:15:28.231Z,4.00
2023-04-23T09:17:55.649Z,3.10
2023-04-23T09:20:24.934Z,2.78
2023-04-23T09:22:53.256Z,3.03
2023-04-23T09:25:21.721Z,3.65
2023-04-23T09:27:52.643Z,2.85
2023-04-23T09:30:20.405Z,2.92
2023-04-23T09:32:48.329Z,2.42
2023-04-23T09:35:16.929Z,2.63
2023-04-23T09:37:49.110Z,2.60
2023-04-23T09:40:17.592Z,2.38
2023-04-23T09:42:52.863Z,2.53
2023-04-23T09:45:20.250Z,2.13
2023-04-23T09:47:52.270Z,2.65
2023-04-23T09:50:20.463Z,3.63
2023-04-23T09:52:54.511Z,2.85
2023-04-23T09:55:35.522Z,3.25
2023-04-23T09:58:04.334Z,2.47
2023-04-23T10:00:38.614Z,3.08
2023-04-23T10:03:07.540Z,2.38
2023-04-23T10:05:56.270Z,2.58
2023-04-23T10:08:27.142Z,2.97
2023-04-23T10:11:02.462Z,2.63
2023-04-23T10:13:37.678Z,2.58
2023-04-23T10:16:20.746Z,2.60
2023-04-23T10:18:52.328Z,2.00
2023-04-23T10:21:20.590Z,2.42
2023-04-23T10:23:48.709Z,2.05
2023-04-23T10:26:17.143Z,2.42
2023-04-23T10:28:48.198Z,2.53
2023-04-23T10:31:16.382Z,2.33
2023-04-23T10:33:56.112Z,2.40
2023-04-23T10:36:27.962Z,2.55
2023-04-23T10:39:00.368Z,2.55
2023-04-23T10:41:30.830Z,2.25
2023-04-23T10:43:58.608Z,2.53
2023-04-23T10:46:30.353Z,2.88
2023-04-23T10:49:14.996Z,2.50
2023-04-23T10:52:17.645Z,2.60
2023-04-23T10:54:33.546Z,2.83
2023-04-23T10:57:07.749Z,3.40
2023-04-23T10:59:36.122Z,2.40
2023-04-23T11:02:10.888Z,2.30
2023-04-23T11:04:42.696Z,2.97
2023-04-23T11:07:10.850Z,2.20
2023-04-23T11:09:38.236Z,2.17
2023-04-23T11:12:10.034Z,2.45
2023-04-23T11:14:38.521Z,1.85
2023-04-23T11:17:09.158Z,1.85
2023-04-23T11:19:40.397Z,2.47
2023-04-23T11:22:10.997Z,2.42
2023-04-23T11:24:42.748Z,2.40
2023-04-23T11:27:11.744Z,2.50
2023-04-23T11:29:40.905Z,2.33
2023-04-23T11:32:13.282Z,3.58
2023-04-23T11:34:41.879Z,2.65
2023-04-23T11:37:11.150Z,2.13
2023-04-23T11:39:39.293Z,2.50
2023-04-23T11:42:10.288Z,2.20
2023-04-23T11:44:39.968Z,2.03
2023-04-23T11:47:09.064Z,2.38
2023-04-23T11:49:38.376Z,3.22
2023-04-23T11:52:06.008Z,1.90
2023-04-23T11:54:34.525Z,2.42
2023-04-23T11:57:04.732Z,2.20
2023-04-23T11:59:32.100Z,3.20
2023-04-23T12:02:00.156Z,2.60
2023-04-23T12:04:28.567Z,3.00
2023-04-23T12:06:57.102Z,2.30
2023-04-23T12:09:25.612Z,1.75
2023-04-23T12:11:53.025Z,1.80
2023-04-23T12:14:29.184Z,2.33
2023-04-23T12:16:57.229Z,2.13
2023-04-23T12:19:31.672Z,2.30
2023-04-23T12:21:59.127Z,1.90
2023-04-23T12:24:27.718Z,2.03
2023-04-23T12:26:56.200Z,1.90
2023-04-23T12:29:24.151Z,1.73
2023-04-23T12:31:55.487Z,1.92
2023-04-23T12:34:23.013Z,3.13
2023-04-23T12:36:52.345Z,2.03
2023-04-23T12:39:25.772Z,1.90
2023-04-23T12:42:05.300Z,2.47
2023-04-23T12:44:34.894Z,2.08
2023-04-23T12:47:03.801Z,2.03
2023-04-23T12:49:31.718Z,1.42
2023-04-23T12:52:03.290Z,1.30
2023-04-23T12:54:31.792Z,2.47
2023-04-23T12:56:59.942Z,1.33
2023-04-23T12:59:27.399Z,1.98
2023-04-23T13:01:54.928Z,1.80
2023-04-23T13:04:22.280Z,1.50
2023-04-23T13:06:49.886Z,1.23
2023-04-23T13:09:17.232Z,2.80
2023-04-23T13:11:44.688Z,2.00
2023-04-23T13:14:12.037Z,2.75
2023-04-23T13:16:39.537Z,2.83
2023-04-23T13:19:07.032Z,2.15
2023-04-23T13:21:34.395Z,1.90
2023-04-23T13:24:01.783Z,2.75
2023-04-23T13:26:35.010Z,2.50
2023-04-23T13:29:02.680Z,1.30
2023-04-23T13:31:30.123Z,2.25
2023-04-23T13:33:58.021Z,3.03
2023-04-23T13:36:25.792Z,3.40
2023-04-23T13:38:53.431Z,1.95
2023-04-23T13:41:20.870Z,1.83
2023-04-23T13:43:48.838Z,1.48
2023-04-23T13:46:16.867Z,3.00
2023-04-23T13:48:44.237Z,2.78
2023-04-23T13:51:26.089Z,2.08
2023-04-23T13:53:59.446Z,1.90
2023-04-23T13:56:30.812Z,2.05
2023-04-23T13:59:18.737Z,2.28
2023-04-23T14:01:50.398Z,2.05
2023-04-23T14:04:18.456Z,2.17
2023-04-23T14:06:46.287Z,1.85
2023-04-23T14:09:13.815Z,1.90
2023-04-23T14:11:41.783Z,2.22
2023-04-23T14:14:09.239Z,2.83
2023-04-23T14:16:36.581Z,1.98
2023-04-23T14:19:03.983Z,2.63
2023-04-23T14:21:31.359Z,2.83
2023-04-23T14:24:17.739Z,1.95
2023-04-23T14:26:49.213Z,3.67
2023-04-23T14:29:25.553Z,2.38
2023-04-23T14:31:53.016Z,1.77
2023-04-23T14:34:20.484Z,1.90
2023-04-23T14:36:49.409Z,2.25
2023-04-23T14:39:17.362Z,1.80
2023-04-23T14:41:44.910Z,3.28
2023-04-23T14:44:12.358Z,1.90
2023-04-23T14:46:39.930Z,2.13
2023-04-23T14:49:07.432Z,2.25
2023-04-23T14:51:34.821Z,2.00
2023-04-23T14:54:02.503Z,2.65
2023-04-23T14:56:29.867Z,1.70
2023-04-23T14:58:57.323Z,1.50
2023-04-23T15:01:25.068Z,1.80
2023-04-23T15:03:53.642Z,1.98
2023-04-23T15:06:21.119Z,2.33
2023-04-23T15:08:48.433Z,4.72
2023-04-23T15:11:15.883Z,3.03
2023-04-23T15:13:43.177Z,2.95
2023-04-23T15:16:26.292Z,2.72
2023-04-23T15:19:04.709Z,2.03
2023-04-23T15:21:32.058Z,1.40
2023-04-23T15:23:59.584Z,2.45
2023-04-23T15:26:27.365Z,1.70
2023-04-23T15:28:54.785Z,2.13
2023-04-23T15:31:22.139Z,1.90
2023-04-23T15:33:49.539Z,2.58
2023-04-23T15:36:16.909Z,2.85
2023-04-23T15:38:44.387Z,2.05
2023-04-23T15:41:12.730Z,1.67
2023-04-23T15:43:40.072Z,2.42
2023-04-23T15:46:07.495Z,1.30
2023-04-23T15:48:34.939Z,1.48
2023-04-23T15:51:02.359Z,1.50
2023-04-23T15:53:29.879Z,1.58
2023-04-23T15:55:57.699Z,1.38
2023-04-23T15:58:25.077Z,1.60
2023-04-23T16:00:52.455Z,1.70
2023-04-23T16:03:20.191Z,1.67
2023-04-23T16:05:50.679Z,1.45
2023-04-23T16:08:18.115Z,1.90
2023-04-23T16:10:45.482Z,1.75
2023-04-23T16:13:13.051Z,2.28
2023-04-23T16:15:40.446Z,1.75
2023-04-23T16:18:07.993Z,1.63
2023-04-23T16:20:36.258Z,4.40
2023-04-23T16:23:03.756Z,9.45
2023-04-23T16:25:31.135Z,5.65
2023-04-23T16:27:59.088Z,3.78
2023-04-23T16:30:26.437Z,2.60
2023-04-23T16:32:53.860Z,1.88
2023-04-23T16:35:21.312Z,2.03
2023-04-23T16:37:48.728Z,1.67
2023-04-23T16:40:16.059Z,2.10
2023-04-23T16:42:44.293Z,2.17
2023-04-23T16:45:12.152Z,2.42
2023-04-23T16:47:39.577Z,2.13
2023-04-23T16:50:07.309Z,2.25
2023-04-23T16:52:34.681Z,2.40
2023-04-23T16:55:02.150Z,2.53
2023-04-23T16:57:30.181Z,2.20
2023-04-23T16:59:57.606Z,2.15
2023-04-23T17:02:25.856Z,2.30
2023-04-23T17:04:53.478Z,1.63
2023-04-23T17:07:21.472Z,1.90
2023-04-23T17:09:48.835Z,3.00
2023-04-23T17:12:16.271Z,2.90
2023-04-23T17:14:43.838Z,2.53
2023-04-23T17:17:11.256Z,2.17
2023-04-23T17:19:38.686Z,2.90
2023-04-23T17:22:07.914Z,2.17
2023-04-23T17:24:37.023Z,3.55
2023-04-23T17:27:05.844Z,2.45
2023-04-23T17:29:33.185Z,2.00
2023-04-23T17:32:01.454Z,2.60
2023-04-23T17:34:28.931Z,2.25
2023-04-23T17:36:56.344Z,4.20
2023-04-23T17:39:25.696Z,9.32
2023-04-23T17:41:53.173Z,3.47
2023-04-23T17:44:20.527Z,2.80
2023-04-23T17:46:47.872Z,3.58
2023-04-23T17:49:15.243Z,7.10
2023-04-23T17:51:42.648Z,6.45
2023-04-23T17:54:10.039Z,4.82
2023-04-23T17:56:37.503Z,6.60
2023-04-23T17:59:04.803Z,4.30
2023-04-23T18:01:33.050Z,3.83
2023-04-23T18:04:00.629Z,4.18
2023-04-23T18:06:28.110Z,5.50
2023-04-23T18:08:55.500Z,12.95
2023-04-23T18:11:22.852Z,4.07
2023-04-23T18:13:53.649Z,4.10
2023-04-23T18:16:21.204Z,4.38
2023-04-23T18:18:49.622Z,3.72
2023-04-23T18:21:18.394Z,4.95
2023-04-23T18:23:46.568Z,3.63
2023-04-23T18:26:14.018Z,2.70
2023-04-23T18:28:44.240Z,4.22
2023-04-23T18:31:11.920Z,3.63
2023-04-23T18:33:58.160Z,2.88
2023-04-23T18:36:27.490Z,2.72
2023-04-23T18:38:54.879Z,5.28
2023-04-23T18:41:22.290Z,2.55
2023-04-23T18:43:49.688Z,2.55
2023-04-23T18:46:17.223Z,2.70
2023-04-23T18:48:47.902Z,3.38
2023-04-23T18:51:35.535Z,3.00
2023-04-23T18:54:03.294Z,4.80
2023-04-23T18:56:30.818Z,3.13
2023-04-23T18:58:58.160Z,3.42
2023-04-23T19:01:27.932Z,3.03
2023-04-23T19:03:56.711Z,3.80
2023-04-23T19:06:24.204Z,4.93
2023-04-23T19:08:51.560Z,4.18
2023-04-23T19:11:18.941Z,9.73
2023-04-23T19:13:46.406Z,3.83
2023-04-23T19:16:16.532Z,6.93
2023-04-23T19:18:44.150Z,5.10
2023-04-23T19:21:11.593Z,4.15
2023-04-23T19:23:38.951Z,4.65
2023-04-23T19:26:06.349Z,4.50
2023-04-23T19:28:33.800Z,3.72
2023-04-23T19:31:01.276Z,3.78
2023-04-23T19:33:28.609Z,3.55
2023-04-23T19:35:56.418Z,4.80
2023-04-23T19:38:23.773Z,4.55
2023-04-23T19:40:51.541Z,4.57
2023-04-23T19:43:20.071Z,3.33
2023-04-23T19:45:47.453Z,4.68
2023-04-23T19:48:14.853Z,5.68
2023-04-23T19:50:42.176Z,4.88
2023-04-23T19:53:09.526Z,4.75
2023-04-23T19:55:37.666Z,3.00
2023-04-23T19:58:08.162Z,3.70
2023-04-23T20:00:41.604Z,2.85
2023-04-23T20:03:09.310Z,4.05
2023-04-23T20:05:37.578Z,3.00
2023-04-23T20:08:11.488Z,7.90
2023-04-23T20:10:38.918Z,5.00
2023-04-23T20:13:06.388Z,4.63
2023-04-23T20:15:33.717Z,3.28
2023-04-23T20:18:01.625Z,3.55
2023-04-23T20:20:29.085Z,2.72
2023-04-23T20:22:56.520Z,2.70
2023-04-23T20:25:25.796Z,2.60
2023-04-23T20:27:53.854Z,2.78
2023-04-23T20:30:21.310Z,2.00
2023-04-23T20:32:48.660Z,2.80
2023-04-23T20:35:16.052Z,3.35
2023-04-23T20:37:43.483Z,4.80
2023-04-23T20:40:11.034Z,2.75
2023-04-23T20:42:39.456Z,3.67
2023-04-23T20:45:08.235Z,1.92
2023-04-23T20:47:35.690Z,4.93
2023-04-23T20:50:03.073Z,6.25
2023-04-23T20:52:30.437Z,3.30
2023-04-23T20:54:57.785Z,3.90
2023-04-23T20:57:25.124Z,3.10
2023-04-23T20:59:52.513Z,3.13
2023-04-23T21:02:20.014Z,3.75
2023-04-23T21:04:47.487Z,2.38
2023-04-23T21:07:14.838Z,2.20
2023-04-23T21:09:42.289Z,2.90
2023-04-23T21:12:09.894Z,2.00
2023-04-23T21:14:37.193Z,2.10
2023-04-23T21:17:04.518Z,2.17
2023-04-23T21:19:31.911Z,3.60
2023-04-23T21:21:59.313Z,2.67
2023-04-23T21:24:26.720Z,3.05
2023-04-23T21:26:54.116Z,2.47
2023-04-23T21:29:21.488Z,2.35
2023-04-23T21:31:53.395Z,2.10
2023-04-23T21:34:21.654Z,1.77
2023-04-23T21:36:49.936Z,2.10
2023-04-23T21:39:17.294Z,1.80
2023-04-23T21:41:46.243Z,2.35
2023-04-23T21:44:13.963Z,2.08
2023-04-23T21:46:43.320Z,3.30
2023-04-23T21:49:11.490Z,2.10
2023-04-23T21:51:41.205Z,1.67
2023-04-23T21:54:09.016Z,1.77
2023-04-23T21:56:36.403Z,2.08
2023-04-23T21:59:03.825Z,1.67
2023-04-23T22:01:32.629Z,1.60
2023-04-23T22:04:03.507Z,6.80
2023-04-23T22:06:31.395Z,2.13
2023-04-23T22:08:58.854Z,2.05
2023-04-23T22:11:26.267Z,1.98
2023-04-23T22:13:53.893Z,1.77
2023-04-23T22:16:28.790Z,1.42
2023-04-23T22:18:57.812Z,1.77
2023-04-23T22:21:25.240Z,2.25
2023-04-23T22:23:52.682Z,2.65
2023-04-23T22:26:20.072Z,1.00
2023-04-23T22:28:47.424Z,1.30
2023-04-23T22:31:14.736Z,1.42
2023-04-23T22:33:42.051Z,1.92
2023-04-23T22:36:09.377Z,1.83
2023-04-23T22:38:36.756Z,2.17
2023-04-23T22:41:04.190Z,2.25
2023-04-23T22:43:31.648Z,0.80
2023-04-23T22:45:59.080Z,1.35
2023-04-23T22:48:28.110Z,2.90
2023-04-23T22:50:55.467Z,1.52
2023-04-23T22:53:25.919Z,1.67
2023-04-23T22:55:53.328Z,2.80
2023-04-23T22:58:20.840Z,2.35
2023-04-23T23:00:48.149Z,1.25
2023-04-23T23:03:15.980Z,0.80
2023-04-23T23:05:43.407Z,0.70
2023-04-23T23:08:10.878Z,0.60
2023-04-23T23:10:38.281Z,1.20
2023-04-23T23:13:05.664Z,0.93
2023-04-23T23:15:32.988Z,1.10
2023-04-23T23:18:00.487Z,0.50
2023-04-23T23:20:27.881Z,0.70
2023-04-23T23:22:55.246Z,1.63
2023-04-23T23:25:23.054Z,1.02
2023-04-23T23:27:50.468Z,3.40
2023-04-23T23:30:17.870Z,0.95
2023-04-23T23:32:45.277Z,1.27
2023-04-23T23:35:12.653Z,1.17
2023-04-23T23:37:39.969Z,1.38
2023-04-23T23:40:07.723Z,0.85
2023-04-23T23:42:35.094Z,0.70
2023-04-23T23:45:02.452Z,0.68
2023-04-23T23:47:29.836Z,0.70
2023-04-23T23:49:57.209Z,1.00
2023-04-23T23:52:24.526Z,1.05
2023-04-23T23:54:51.954Z,1.20
2023-04-23T23:57:19.286Z,1.65
2023-04-23T23:59:47.219Z,0.70
